Addy, Washington
Current Conditions -  °F | °C
As of 8:14 AM on Friday 21 Nov 2014 (Local Time) from KDEW Reporting Station
Haze Haze  
Wind Chill: 32°   Ceiling: 2000
Heat Index: 32°   Visibility: 2mi
Dew Point: 31°   Wind: 0mph
Humidity: 96%   Direction: NA
Pressure: 29.91"   Gusts: NA
Location:  48.36°N, 117.84°W
Report Text: KDEW 211614Z AUTO 00000KT 2SM BR BKN020 OVC070 00/M01 A2991 RMK AO2 T00001006
Loading
Personal Weather Stations






























Interactive Weather Map New forecast layout! Learn more

10-Day Weather Forecast

Advertisements
Track Severe Weather on mobile